createdAt,value
2019-05-02T00:00:16.777Z,96.4
2019-05-02T00:01:16.806Z,96.3
2019-05-02T00:02:17.067Z,96.3
2019-05-02T00:03:16.325Z,96.3
2019-05-02T00:04:21.281Z,96.3
2019-05-02T00:05:16.601Z,96.4
2019-05-02T00:06:16.863Z,96.5
2019-05-02T00:07:21.721Z,96.5
2019-05-02T00:08:17.136Z,96.7
2019-05-02T00:09:16.400Z,96.8
2019-05-02T00:10:24.733Z,96.8
2019-05-02T00:11:16.722Z,96.9
2019-05-02T00:12:16.999Z,97.0
2019-05-02T00:13:16.260Z,97.0
2019-05-02T00:14:16.530Z,97.0
2019-05-02T00:15:16.810Z,97.0
2019-05-02T00:16:17.078Z,97.0
2019-05-02T00:17:25.490Z,97.0
2019-05-02T00:18:17.213Z,97.0
2019-05-02T00:19:16.481Z,97.0
2019-05-02T00:20:25.611Z,97.0
2019-05-02T00:21:16.796Z,97.0
2019-05-02T00:22:18.575Z,97.1
2019-05-02T00:23:16.838Z,97.1
2019-05-02T00:24:17.102Z,97.0
2019-05-02T00:25:17.391Z,96.8
2019-05-02T00:26:16.689Z,96.9
2019-05-02T00:27:16.958Z,97.0
2019-05-02T00:28:17.225Z,97.0
2019-05-02T00:29:23.616Z,97.0
2019-05-02T00:30:16.995Z,97.0
2019-05-02T00:31:17.030Z,97.0
2019-05-02T00:32:22.293Z,97.0
2019-05-02T00:33:16.782Z,97.0
2019-05-02T00:34:17.059Z,97.1
2019-05-02T00:35:16.330Z,97.1
2019-05-02T00:36:16.601Z,97.1
2019-05-02T00:38:17.106Z,97.2
2019-05-02T00:39:16.365Z,97.2
2019-05-02T00:40:25.467Z,97.2
2019-05-02T00:41:16.701Z,97.2
2019-05-02T00:42:22.302Z,97.3
2019-05-02T00:43:16.685Z,97.3
2019-05-02T00:44:16.954Z,97.2
2019-05-02T00:45:23.805Z,97.2
2019-05-02T00:46:17.224Z,97.2
2019-05-02T00:47:16.485Z,97.1
2019-05-02T00:48:23.021Z,97.1
2019-05-02T00:49:16.354Z,97.1
2019-05-02T00:50:16.622Z,97.1
2019-05-02T00:51:16.686Z,97.0
2019-05-02T00:52:16.952Z,97.0
2019-05-02T00:53:17.211Z,97.1
2019-05-02T00:54:24.074Z,96.8
2019-05-02T00:55:16.439Z,96.8
2019-05-02T00:56:16.691Z,96.8
2019-05-02T00:57:21.736Z,96.8
2019-05-02T00:58:17.115Z,96.8
2019-05-02T00:59:16.385Z,96.8
2019-05-02T01:00:19.770Z,97.0
2019-05-02T01:01:16.701Z,97.0
2019-05-02T01:02:16.965Z,97.0
2019-05-02T01:03:18.053Z,96.9
2019-05-02T01:04:16.331Z,96.8
2019-05-02T01:05:16.610Z,96.8
2019-05-02T01:06:16.882Z,96.8
2019-05-02T01:07:25.316Z,96.7
2019-05-02T01:08:16.721Z,96.8
2019-05-02T01:09:17.002Z,96.8
2019-05-02T01:10:21.355Z,96.8
2019-05-02T01:11:16.324Z,96.7
2019-05-02T01:12:26.864Z,96.7
2019-05-02T01:13:20.375Z,96.5
2019-05-02T01:14:16.741Z,96.4
2019-05-02T01:15:17.036Z,96.4
2019-05-02T01:16:20.335Z,96.4
2019-05-02T01:17:16.695Z,96.5
2019-05-02T01:18:16.969Z,96.3
2019-05-02T01:19:17.360Z,96.3
2019-05-02T01:20:16.638Z,96.5
2019-05-02T01:21:16.687Z,96.6
2019-05-02T01:22:17.389Z,96.5
2019-05-02T01:23:16.650Z,96.5
2019-05-02T01:24:16.922Z,96.3
2019-05-02T01:25:17.377Z,96.3
2019-05-02T01:26:16.650Z,96.4
2019-05-02T01:27:16.914Z,96.5
2019-05-02T01:28:18.878Z,96.7
2019-05-02T01:29:17.210Z,96.5
2019-05-02T01:30:16.499Z,96.3
2019-05-02T01:31:20.110Z,96.5
2019-05-02T01:32:16.494Z,96.7
2019-05-02T01:33:16.762Z,96.8
2019-05-02T01:34:19.331Z,96.8
2019-05-02T01:35:16.656Z,97.0
2019-05-02T01:36:16.918Z,97.0
2019-05-02T01:37:21.941Z,97.1
2019-05-02T01:38:16.259Z,97.2
2019-05-02T01:39:16.525Z,97.2
2019-05-02T01:40:18.962Z,97.1
2019-05-02T01:41:16.842Z,97.0
2019-05-02T01:42:17.106Z,96.8
2019-05-02T01:43:23.896Z,96.9
2019-05-02T01:44:16.363Z,96.9
2019-05-02T01:45:16.669Z,97.0
2019-05-02T01:46:23.989Z,97.0
2019-05-02T01:47:16.335Z,97.0
2019-05-02T01:48:16.604Z,97.0
2019-05-02T01:49:23.049Z,97.0
2019-05-02T01:50:16.415Z,97.0
2019-05-02T01:51:16.471Z,96.9
2019-05-02T01:52:23.810Z,96.9
2019-05-02T01:53:17.116Z,96.8
2019-05-02T01:54:16.408Z,96.8
2019-05-02T01:55:21.033Z,96.8
2019-05-02T01:56:16.389Z,96.8
2019-05-02T01:57:16.643Z,96.7
2019-05-02T01:58:22.709Z,96.5
2019-05-02T01:59:17.082Z,96.5
2019-05-02T02:00:16.370Z,96.5
2019-05-02T02:01:23.224Z,96.6
2019-05-02T02:02:16.571Z,96.7
2019-05-02T02:03:16.841Z,96.8
2019-05-02T02:04:22.199Z,96.8
2019-05-02T02:05:16.589Z,96.8
2019-05-02T02:06:16.855Z,96.8
2019-05-02T02:07:21.189Z,96.8
2019-05-02T02:08:16.555Z,96.8
2019-05-02T02:09:16.848Z,96.8
2019-05-02T02:10:21.058Z,96.9
2019-05-02T02:11:17.161Z,96.9
2019-05-02T02:12:16.426Z,96.9
2019-05-02T02:13:16.689Z,96.9
2019-05-02T02:14:19.034Z,96.7
2019-05-02T02:15:16.338Z,96.5
2019-05-02T02:16:16.616Z,96.5
2019-05-02T02:17:17.458Z,96.5
2019-05-02T02:18:16.717Z,96.5
2019-05-02T02:19:16.973Z,96.5
2019-05-02T02:20:17.250Z,96.5
2019-05-02T02:22:16.266Z,96.7
2019-05-02T02:23:16.526Z,96.5
2019-05-02T02:24:25.074Z,96.7
2019-05-02T02:25:16.711Z,96.8
2019-05-02T02:26:16.990Z,96.8
2019-05-02T02:27:24.500Z,96.8
2019-05-02T02:28:16.975Z,97.0
2019-05-02T02:29:17.243Z,97.1
2019-05-02T02:30:24.257Z,97.0
2019-05-02T02:31:16.583Z,96.5
2019-05-02T02:33:16.285Z,96.2
2019-05-02T02:34:29.495Z,96.3
2019-05-02T02:35:17.228Z,96.3
2019-05-02T02:36:16.505Z,96.5
2019-05-02T02:37:16.777Z,96.5
2019-05-02T02:38:17.048Z,96.5
2019-05-02T02:39:17.262Z,96.4
2019-05-02T02:40:16.550Z,96.5
2019-05-02T02:41:16.604Z,96.5
2019-05-02T02:42:16.873Z,96.5
2019-05-02T02:43:33.823Z,96.5
2019-05-02T02:44:16.846Z,96.6
2019-05-02T02:45:20.434Z,96.7
2019-05-02T02:46:16.772Z,96.8
2019-05-02T02:47:21.058Z,96.7
2019-05-02T02:48:16.469Z,96.8
2019-05-02T02:49:24.334Z,96.7
2019-05-02T02:50:16.817Z,96.8
2019-05-02T02:51:26.192Z,96.8
2019-05-02T02:52:16.608Z,96.8
2019-05-02T02:54:16.911Z,96.9
2019-05-02T02:55:24.436Z,97.0
2019-05-02T02:56:16.892Z,97.0
2019-05-02T02:57:28.372Z,97.2
2019-05-02T02:58:16.776Z,97.2
2019-05-02T02:59:27.931Z,97.2
2019-05-02T03:00:16.366Z,97.2
2019-05-02T03:01:29.211Z,97.2
2019-05-02T03:02:16.713Z,97.0
2019-05-02T03:04:17.250Z,96.8
2019-05-02T03:05:25.837Z,96.8
2019-05-02T03:06:16.853Z,96.8
2019-05-02T03:07:28.540Z,97.0
2019-05-02T03:08:17.062Z,97.0
2019-05-02T03:10:17.226Z,96.9
2019-05-02T03:11:25.309Z,96.8
2019-05-02T03:12:16.831Z,96.8
2019-05-02T03:13:24.138Z,96.8
2019-05-02T03:14:16.481Z,96.8
2019-05-02T03:15:28.210Z,96.8
2019-05-02T03:16:16.706Z,97.0
2019-05-02T03:17:28.063Z,97.0
2019-05-02T03:18:16.690Z,96.8
2019-05-02T03:19:23.065Z,96.8
2019-05-02T03:20:16.616Z,96.8
2019-05-02T03:21:22.408Z,96.8
2019-05-02T03:22:17.532Z,96.8
2019-05-02T03:23:24.077Z,96.8
2019-05-02T03:24:16.475Z,96.8
2019-05-02T03:25:32.447Z,96.8
2019-05-02T03:26:17.472Z,96.8
2019-05-02T03:27:16.760Z,96.9
2019-05-02T03:28:20.911Z,97.0
2019-05-02T03:29:16.329Z,97.0
2019-05-02T03:30:31.265Z,97.1
2019-05-02T03:31:30.013Z,97.1
2019-05-02T03:32:34.009Z,97.1
2019-05-02T03:33:16.598Z,97.1
2019-05-02T03:34:16.887Z,97.1
2019-05-02T03:35:19.674Z,97.0
2019-05-02T03:36:35.290Z,97.0
2019-05-02T03:37:16.557Z,97.0
2019-05-02T03:38:16.843Z,97.0
2019-05-02T03:39:17.748Z,97.0
2019-05-02T03:40:17.034Z,97.0
2019-05-02T03:41:23.705Z,97.2
2019-05-02T03:42:17.159Z,97.3
2019-05-02T03:44:25.756Z,97.2
2019-05-02T03:45:16.606Z,97.2
2019-05-02T03:46:22.609Z,97.1
2019-05-02T03:47:17.023Z,97.2
2019-05-02T03:48:25.306Z,97.3
2019-05-02T03:49:16.736Z,97.3
2019-05-02T03:50:17.045Z,97.2
2019-05-02T03:51:24.939Z,97.2
2019-05-02T03:52:16.453Z,97.2
2019-05-02T03:53:25.535Z,97.2
2019-05-02T03:54:20.363Z,97.2
2019-05-02T03:55:16.674Z,97.2
2019-05-02T03:56:16.941Z,97.2
2019-05-02T03:57:17.223Z,97.0
2019-05-02T03:58:17.541Z,96.9
2019-05-02T03:59:16.865Z,96.8
2019-05-02T04:00:24.040Z,96.8
2019-05-02T04:01:17.189Z,96.8
2019-05-02T04:02:21.753Z,96.8
2019-05-02T04:03:17.204Z,96.8
2019-05-02T04:04:22.430Z,96.8
2019-05-02T04:05:16.974Z,96.8
2019-05-02T04:06:23.404Z,96.9
2019-05-02T04:07:16.886Z,97.0
2019-05-02T04:08:22.658Z,97.1
2019-05-02T04:09:16.964Z,97.2
2019-05-02T04:10:21.479Z,97.2
2019-05-02T04:11:16.281Z,97.2
2019-05-02T04:12:21.812Z,97.2
2019-05-02T04:13:17.237Z,97.2
2019-05-02T04:14:37.157Z,97.2
2019-05-02T04:15:17.003Z,97.0
2019-05-02T04:16:17.761Z,96.8
2019-05-02T04:17:17.093Z,96.8
2019-05-02T04:18:18.080Z,96.8
2019-05-02T04:19:16.361Z,96.7
2019-05-02T04:20:16.645Z,96.9
2019-05-02T04:21:26.108Z,96.6
2019-05-02T04:22:16.558Z,96.6
2019-05-02T04:24:17.086Z,96.6
2019-05-02T04:25:16.375Z,96.7
2019-05-02T04:26:16.656Z,96.8
2019-05-02T04:27:16.958Z,96.8
2019-05-02T04:28:17.234Z,96.5
2019-05-02T04:29:16.511Z,96.5
2019-05-02T04:30:16.834Z,96.3
2019-05-02T04:31:16.843Z,96.2
2019-05-02T04:32:17.116Z,96.2
2019-05-02T04:33:16.395Z,96.3
2019-05-02T04:34:18.214Z,96.3
2019-05-02T04:35:16.583Z,96.3
2019-05-02T04:36:18.096Z,96.4
2019-05-02T04:37:16.462Z,96.5
2019-05-02T04:38:38.438Z,96.5
2019-05-02T04:39:21.957Z,96.5
2019-05-02T04:40:18.461Z,96.5
2019-05-02T04:41:28.916Z,96.3
2019-05-02T04:42:23.068Z,96.3
2019-05-02T04:43:18.569Z,96.0
2019-05-02T04:44:19.177Z,95.8
2019-05-02T04:45:31.338Z,95.8
2019-05-02T04:46:27.932Z,95.7
2019-05-02T04:47:22.022Z,95.3
2019-05-02T04:48:18.607Z,95.3
2019-05-02T04:49:32.992Z,95.5
2019-05-02T04:50:24.937Z,95.5
2019-05-02T04:51:20.792Z,95.3
2019-05-02T04:52:21.429Z,95.2
2019-05-02T04:53:19.113Z,95.2
2019-05-02T04:54:31.982Z,95.3
2019-05-02T04:55:32.852Z,95.3
2019-05-02T04:56:18.869Z,95.2
2019-05-02T04:57:18.946Z,95.0
2019-05-02T04:58:29.466Z,94.8
2019-05-02T04:59:22.843Z,95.0
2019-05-02T05:00:18.600Z,95.0
2019-05-02T05:01:16.429Z,95.0
2019-05-02T05:02:30.710Z,94.9
2019-05-02T05:03:21.280Z,94.5
2019-05-02T05:04:18.096Z,94.7
2019-05-02T05:05:25.914Z,94.7
2019-05-02T05:06:19.092Z,94.7
2019-05-02T05:07:17.905Z,94.8
2019-05-02T05:08:31.570Z,94.9
2019-05-02T05:09:18.168Z,95.1
2019-05-02T05:10:18.778Z,95.0
2019-05-02T05:11:24.877Z,94.8
2019-05-02T05:12:19.518Z,94.8
2019-05-02T05:13:23.348Z,94.5
2019-05-02T05:14:18.104Z,94.5
2019-05-02T05:15:37.855Z,94.3
2019-05-02T05:16:18.824Z,94.0
2019-05-02T05:17:20.122Z,94.1
2019-05-02T05:18:17.804Z,94.1
2019-05-02T05:19:17.961Z,94.0
2019-05-02T05:20:18.478Z,94.0
2019-05-02T05:21:18.190Z,93.9
2019-05-02T05:22:18.680Z,93.3
2019-05-02T05:23:21.662Z,93.1
2019-05-02T05:24:18.351Z,93.2
2019-05-02T05:25:21.373Z,93.2
2019-05-02T05:26:17.630Z,93.5
2019-05-02T05:27:22.727Z,93.2
2019-05-02T05:28:20.071Z,93.2
2019-05-02T05:29:23.326Z,93.4
2019-05-02T05:30:18.887Z,93.0
2019-05-02T05:31:25.634Z,93.0
2019-05-02T05:32:18.080Z,92.5
2019-05-02T05:33:18.415Z,92.2
2019-05-02T05:34:17.506Z,92.0
2019-05-02T05:35:17.869Z,92.2
2019-05-02T05:36:24.840Z,92.4
2019-05-02T05:37:17.413Z,92.0
2019-05-02T05:38:19.813Z,91.8
2019-05-02T05:39:17.819Z,91.8
2019-05-02T05:40:17.836Z,91.6
2019-05-02T05:41:23.291Z,91.5
2019-05-02T05:42:19.607Z,91.3
2019-05-02T05:43:20.621Z,91.6
2019-05-02T05:44:18.283Z,91.4
2019-05-02T05:45:17.553Z,91.6
2019-05-02T05:46:18.066Z,91.7
2019-05-02T05:47:21.222Z,91.7
2019-05-02T05:48:18.530Z,91.8
2019-05-02T05:49:21.819Z,91.6
2019-05-02T05:50:17.829Z,90.8
2019-05-02T05:51:20.834Z,90.7
2019-05-02T05:52:18.212Z,90.5
2019-05-02T05:53:20.945Z,89.8
2019-05-02T05:54:17.958Z,90.5
2019-05-02T05:55:24.194Z,90.6
2019-05-02T05:56:18.233Z,90.3
2019-05-02T05:57:21.142Z,90.3
2019-05-02T05:58:18.907Z,89.8
2019-05-02T05:59:17.689Z,89.8
2019-05-02T06:00:23.358Z,89.9
2019-05-02T06:01:20.504Z,89.5
2019-05-02T06:02:18.553Z,89.4
2019-05-02T06:03:18.056Z,89.2
2019-05-02T06:04:23.589Z,89.0
2019-05-02T06:05:17.631Z,89.0
2019-05-02T06:06:24.466Z,88.7
2019-05-02T06:07:20.022Z,88.5
2019-05-02T06:08:19.920Z,88.7
2019-05-02T06:09:17.241Z,88.4
2019-05-02T06:10:16.510Z,88.5
2019-05-02T06:11:21.763Z,88.7
2019-05-02T06:12:17.087Z,88.2
2019-05-02T06:13:16.359Z,87.8
2019-05-02T06:14:24.763Z,87.2
2019-05-02T06:15:17.231Z,86.6
2019-05-02T06:16:16.789Z,87.5
2019-05-02T06:17:17.061Z,86.8
2019-05-02T06:18:16.340Z,87.1
2019-05-02T06:19:19.056Z,86.8
2019-05-02T06:20:16.436Z,86.1
2019-05-02T06:21:17.286Z,85.4
2019-05-02T06:22:25.385Z,84.4
2019-05-02T06:23:16.870Z,84.3
2019-05-02T06:24:17.240Z,84.1
2019-05-02T06:25:16.844Z,85.0
2019-05-02T06:26:17.305Z,85.2
2019-05-02T06:27:25.117Z,84.8
2019-05-02T06:28:16.759Z,85.1
2019-05-02T06:29:20.687Z,85.0
2019-05-02T06:30:17.091Z,85.0
2019-05-02T06:31:17.402Z,85.3
2019-05-02T06:32:20.624Z,84.8
2019-05-02T06:33:17.008Z,84.5
2019-05-02T06:34:16.273Z,84.7
2019-05-02T06:35:21.067Z,83.7
2019-05-02T06:36:16.617Z,83.3
2019-05-02T06:37:16.882Z,83.2
2019-05-02T06:38:22.910Z,81.7
2019-05-02T06:39:17.224Z,80.7
2019-05-02T06:40:16.503Z,81.1
2019-05-02T06:41:22.284Z,80.3
2019-05-02T06:42:16.588Z,78.2
2019-05-02T06:43:16.848Z,78.7
2019-05-02T06:44:24.198Z,78.5
2019-05-02T06:45:16.475Z,76.9
2019-05-02T06:47:16.907Z,76.3
2019-05-02T06:48:19.036Z,76.2
2019-05-02T06:49:16.376Z,75.6
2019-05-02T06:50:16.650Z,75.8
2019-05-02T06:51:21.043Z,74.7
2019-05-02T06:52:16.445Z,74.0
2019-05-02T06:53:16.713Z,74.5
2019-05-02T06:54:22.707Z,74.4
2019-05-02T06:55:17.052Z,74.5
2019-05-02T06:56:16.321Z,74.8
2019-05-02T06:57:23.967Z,73.1
2019-05-02T06:58:16.284Z,73.0
2019-05-02T06:59:20.254Z,73.1
2019-05-02T07:00:16.592Z,74.1
2019-05-02T07:01:21.642Z,74.4
2019-05-02T07:02:17.123Z,74.6
2019-05-02T07:03:16.401Z,74.0
2019-05-02T07:04:22.752Z,73.3
2019-05-02T07:05:16.439Z,72.2
2019-05-02T07:06:17.025Z,71.3
2019-05-02T07:07:16.407Z,70.9
2019-05-02T07:08:16.931Z,69.9
2019-05-02T07:09:16.368Z,69.3
2019-05-02T07:10:25.106Z,68.7
2019-05-02T07:11:16.682Z,70.0
2019-05-02T07:12:16.940Z,69.5
2019-05-02T07:13:17.207Z,68.2
2019-05-02T07:14:23.249Z,68.5
2019-05-02T07:15:16.733Z,68.8
2019-05-02T07:16:37.456Z,68.2
2019-05-02T07:17:16.326Z,68.0
2019-05-02T07:18:16.579Z,67.1
2019-05-02T07:19:26.646Z,68.0
2019-05-02T07:20:16.412Z,68.5
2019-05-02T07:21:22.837Z,67.5
2019-05-02T07:22:16.473Z,65.8
2019-05-02T07:23:18.487Z,65.5
2019-05-02T07:24:16.772Z,64.0
2019-05-02T07:25:17.039Z,63.8
2019-05-02T07:26:23.074Z,65.4
2019-05-02T07:27:16.472Z,65.9
2019-05-02T07:28:16.736Z,65.0
2019-05-02T07:29:23.022Z,64.5
2019-05-02T07:30:16.417Z,65.0
2019-05-02T07:31:16.431Z,64.9
2019-05-02T07:32:24.464Z,65.8
2019-05-02T07:33:17.105Z,66.4
2019-05-02T07:34:16.367Z,66.8
2019-05-02T07:35:24.295Z,67.2
2019-05-02T07:36:16.657Z,65.5
2019-05-02T07:37:16.912Z,65.9
2019-05-02T07:38:25.464Z,66.2
2019-05-02T07:39:16.992Z,67.3
2019-05-02T07:40:18.815Z,68.0
2019-05-02T07:41:16.318Z,66.6
2019-05-02T07:42:16.581Z,65.1
2019-05-02T07:43:22.341Z,64.5
2019-05-02T07:44:16.665Z,64.3
2019-05-02T07:45:16.933Z,64.7
2019-05-02T07:46:22.238Z,63.2
2019-05-02T07:47:16.546Z,62.2
2019-05-02T07:48:19.053Z,63.8
2019-05-02T07:49:16.391Z,64.8
2019-05-02T07:50:16.703Z,65.2
2019-05-02T07:51:21.192Z,63.8
2019-05-02T07:52:16.599Z,63.9
2019-05-02T07:53:16.875Z,64.1
2019-05-02T07:54:24.657Z,64.1
2019-05-02T07:55:17.126Z,64.8
2019-05-02T07:56:18.968Z,63.7
2019-05-02T07:57:16.338Z,63.2
2019-05-02T07:58:16.603Z,63.7
2019-05-02T07:59:23.029Z,63.4
2019-05-02T08:00:16.640Z,63.5
2019-05-02T08:01:16.682Z,64.0
2019-05-02T08:02:24.981Z,64.3
2019-05-02T08:03:16.615Z,63.4
2019-05-02T08:04:16.882Z,62.0
2019-05-02T08:05:23.735Z,61.6
2019-05-02T08:06:17.100Z,62.5
2019-05-02T08:07:21.403Z,61.1
2019-05-02T08:08:16.744Z,60.4
2019-05-02T08:09:17.021Z,61.0
2019-05-02T08:10:23.930Z,62.1
2019-05-02T08:11:16.357Z,62.7
2019-05-02T08:12:16.629Z,62.7
2019-05-02T08:13:19.371Z,61.4
2019-05-02T08:14:16.720Z,61.0
2019-05-02T08:15:16.989Z,60.0
2019-05-02T08:16:16.249Z,61.5
2019-05-02T08:17:19.258Z,60.5
2019-05-02T08:18:16.667Z,61.1
2019-05-02T08:19:16.943Z,59.1
2019-05-02T08:20:21.103Z,61.2
2019-05-02T08:21:16.266Z,61.0
2019-05-02T08:22:16.536Z,60.8
2019-05-02T08:23:25.692Z,60.0
2019-05-02T08:24:17.134Z,60.8
2019-05-02T08:25:16.393Z,60.1
2019-05-02T08:26:23.457Z,59.4
2019-05-02T08:27:16.807Z,59.3
2019-05-02T08:28:18.029Z,60.0
2019-05-02T08:29:16.304Z,60.0
2019-05-02T08:30:16.568Z,59.7
2019-05-02T08:31:20.917Z,60.1
2019-05-02T08:32:16.314Z,60.7
2019-05-02T08:33:16.585Z,60.9
2019-05-02T08:34:16.876Z,59.5
2019-05-02T08:35:17.136Z,59.3
2019-05-02T08:36:16.398Z,59.6
2019-05-02T08:37:16.661Z,59.0
2019-05-02T08:38:18.967Z,58.2
2019-05-02T08:39:16.345Z,58.8
2019-05-02T08:40:16.616Z,58.6
2019-05-02T08:41:21.399Z,58.2
2019-05-02T08:42:16.795Z,57.1
2019-05-02T08:43:17.047Z,57.9
2019-05-02T08:44:18.209Z,59.0
2019-05-02T08:45:16.516Z,59.3
2019-05-02T08:46:17.039Z,59.5
2019-05-02T08:47:19.478Z,58.8
2019-05-02T08:48:16.808Z,59.4
2019-05-02T08:49:20.066Z,58.5
2019-05-02T08:50:16.430Z,57.4
2019-05-02T08:51:16.447Z,58.2
2019-05-02T08:52:16.723Z,57.9
2019-05-02T08:53:21.953Z,59.7
2019-05-02T08:54:16.330Z,59.7
2019-05-02T08:55:16.640Z,59.0
2019-05-02T08:56:22.796Z,59.2
2019-05-02T08:57:17.148Z,60.2
2019-05-02T08:58:16.418Z,60.5
2019-05-02T08:59:23.976Z,59.8
2019-05-02T09:00:16.607Z,59.7
2019-05-02T09:01:16.675Z,60.6
2019-05-02T09:02:25.827Z,60.4
2019-05-02T09:03:16.550Z,59.5
2019-05-02T09:04:16.816Z,58.5
2019-05-02T09:05:17.113Z,59.4
2019-05-02T09:06:22.145Z,58.2
2019-05-02T09:07:16.819Z,56.8
2019-05-02T09:08:17.116Z,57.0
2019-05-02T09:09:16.377Z,56.4
2019-05-02T09:10:16.673Z,56.3
2019-05-02T09:11:16.691Z,57.0
2019-05-02T09:12:20.380Z,58.0
2019-05-02T09:13:29.064Z,57.2
2019-05-02T09:14:16.665Z,57.0
2019-05-02T09:15:16.941Z,55.8
2019-05-02T09:16:28.974Z,55.2
2019-05-02T09:17:16.866Z,54.7
2019-05-02T09:18:17.136Z,55.0
2019-05-02T09:19:26.233Z,55.9
2019-05-02T09:20:23.437Z,55.2
2019-05-02T09:21:16.797Z,55.4
2019-05-02T09:22:17.058Z,55.4
2019-05-02T09:23:16.318Z,55.5
2019-05-02T09:24:23.336Z,56.0
2019-05-02T09:25:17.049Z,54.0
2019-05-02T09:26:16.313Z,54.0
2019-05-02T09:27:16.571Z,54.6
2019-05-02T09:28:21.632Z,55.0
2019-05-02T09:29:16.293Z,54.6
2019-05-02T09:30:24.226Z,55.8
2019-05-02T09:31:16.605Z,55.8
2019-05-02T09:32:22.577Z,54.8
2019-05-02T09:33:16.322Z,54.4
2019-05-02T09:34:22.589Z,54.4
2019-05-02T09:35:16.341Z,53.5
2019-05-02T09:36:16.620Z,52.4
2019-05-02T09:37:16.881Z,51.8
2019-05-02T09:38:17.155Z,52.2
2019-05-02T09:39:16.404Z,50.8
2019-05-02T09:40:17.018Z,52.5
2019-05-02T09:41:19.630Z,54.0
2019-05-02T09:42:19.165Z,54.2
2019-05-02T09:43:16.490Z,54.3
2019-05-02T09:44:18.871Z,53.8
2019-05-02T09:45:17.151Z,53.4
2019-05-02T09:46:16.816Z,53.1
2019-05-02T09:47:17.075Z,53.5
2019-05-02T09:48:21.853Z,53.8
2019-05-02T09:49:16.982Z,53.8
2019-05-02T09:50:25.403Z,54.4
2019-05-02T09:51:17.660Z,54.2
2019-05-02T09:52:16.952Z,54.3
2019-05-02T09:53:25.416Z,53.7
2019-05-02T09:54:16.936Z,54.0
2019-05-02T09:55:17.216Z,54.2
2019-05-02T09:56:16.503Z,54.4
2019-05-02T09:57:16.774Z,53.8
2019-05-02T09:58:23.770Z,54.5
2019-05-02T09:59:30.345Z,54.3
2019-05-02T10:00:16.749Z,53.5
2019-05-02T10:01:16.779Z,53.1
2019-05-02T10:02:17.055Z,52.5
2019-05-02T10:03:16.320Z,53.5
2019-05-02T10:04:16.595Z,53.5
2019-05-02T10:05:16.897Z,54.0
2019-05-02T10:06:18.442Z,54.0
2019-05-02T10:07:16.792Z,53.6
2019-05-02T10:08:17.127Z,54.5
2019-05-02T10:09:23.267Z,53.5
2019-05-02T10:10:16.310Z,54.5
2019-05-02T10:11:21.725Z,54.2
2019-05-02T10:12:16.797Z,54.7
2019-05-02T10:13:17.058Z,54.0
2019-05-02T10:14:16.331Z,53.5
2019-05-02T10:15:16.623Z,53.6
2019-05-02T10:16:26.979Z,53.8
2019-05-02T10:17:18.654Z,54.1
2019-05-02T10:18:24.542Z,53.3
2019-05-02T10:19:16.824Z,54.0
2019-05-02T10:20:17.102Z,52.9
2019-05-02T10:21:17.455Z,52.8
2019-05-02T10:22:16.745Z,50.7
2019-05-02T10:23:20.786Z,50.5
2019-05-02T10:24:16.917Z,49.8
2019-05-02T10:25:17.237Z,49.0
2019-05-02T10:26:24.311Z,49.3
2019-05-02T10:27:16.696Z,49.9
2019-05-02T10:28:16.963Z,50.5
2019-05-02T10:29:28.557Z,51.9
2019-05-02T10:30:17.163Z,51.5
2019-05-02T10:31:17.050Z,51.9
2019-05-02T10:32:16.899Z,52.4
2019-05-02T10:33:17.179Z,52.3
2019-05-02T10:34:17.915Z,52.8
2019-05-02T10:35:17.218Z,52.5
2019-05-02T10:36:21.775Z,51.8
2019-05-02T10:37:16.609Z,52.3
2019-05-02T10:38:19.660Z,53.0
2019-05-02T10:39:16.953Z,51.2
2019-05-02T10:40:17.565Z,50.2
2019-05-02T10:41:16.288Z,49.5
2019-05-02T10:42:16.547Z,49.3
2019-05-02T10:43:16.815Z,48.8
2019-05-02T10:44:17.083Z,49.7
2019-05-02T10:45:16.970Z,50.9
2019-05-02T10:46:17.244Z,51.6
2019-05-02T10:47:16.506Z,50.6
2019-05-02T10:48:28.582Z,50.9
2019-05-02T10:49:17.183Z,50.6
2019-05-02T10:50:16.476Z,50.8
2019-05-02T10:51:16.534Z,50.5
2019-05-02T10:52:21.472Z,50.9
2019-05-02T10:53:16.807Z,50.8
2019-05-02T10:54:17.076Z,50.9
2019-05-02T10:55:16.336Z,50.0
2019-05-02T10:56:16.594Z,50.6
2019-05-02T10:57:16.865Z,51.3
2019-05-02T10:58:17.143Z,51.3
2019-05-02T10:59:16.410Z,50.5
2019-05-02T11:00:16.702Z,50.3
2019-05-02T11:01:16.722Z,49.4
2019-05-02T11:02:16.986Z,47.8
2019-05-02T11:03:17.244Z,49.2
2019-05-02T11:04:16.507Z,49.3
2019-05-02T11:05:26.121Z,50.5
2019-05-02T11:06:16.702Z,50.2
2019-05-02T11:07:25.893Z,50.8
2019-05-02T11:08:16.452Z,50.3
2019-05-02T11:09:24.599Z,50.5
2019-05-02T11:10:16.345Z,49.4
2019-05-02T11:11:16.378Z,49.5
2019-05-02T11:12:25.478Z,49.6
2019-05-02T11:13:16.588Z,49.3
2019-05-02T11:14:16.842Z,50.1
2019-05-02T11:15:17.104Z,49.5
2019-05-02T11:16:16.373Z,48.8
2019-05-02T11:17:18.237Z,49.7
2019-05-02T11:18:16.560Z,49.8
2019-05-02T11:19:16.831Z,50.3
2019-05-02T11:20:17.098Z,50.4
2019-05-02T11:21:18.999Z,50.0
2019-05-02T11:22:16.263Z,50.0
2019-05-02T11:23:16.533Z,49.8
2019-05-02T11:24:16.790Z,49.9
2019-05-02T11:25:17.070Z,50.1
2019-05-02T11:26:25.171Z,49.2
2019-05-02T11:27:16.602Z,48.5
2019-05-02T11:28:16.859Z,49.7
2019-05-02T11:29:17.112Z,50.0
2019-05-02T11:30:22.187Z,50.1
2019-05-02T11:31:16.445Z,49.8
2019-05-02T11:32:16.711Z,49.7
2019-05-02T11:33:16.981Z,50.1
2019-05-02T11:34:17.264Z,50.0
2019-05-02T11:35:16.536Z,50.6
2019-05-02T11:36:16.819Z,50.4
2019-05-02T11:37:17.084Z,50.2
2019-05-02T11:38:28.846Z,50.7
2019-05-02T11:39:28.506Z,50.5
2019-05-02T11:40:17.175Z,50.6
2019-05-02T11:41:17.254Z,51.1
2019-05-02T11:42:22.286Z,51.3
2019-05-02T11:43:16.463Z,51.5
2019-05-02T11:44:16.732Z,50.9
2019-05-02T11:45:17.007Z,50.1
2019-05-02T11:46:16.286Z,50.2
2019-05-02T11:47:21.483Z,49.5
2019-05-02T11:48:19.935Z,50.5
2019-05-02T11:49:17.217Z,49.2
2019-05-02T11:50:16.492Z,49.4
2019-05-02T11:51:16.641Z,49.0
2019-05-02T11:52:16.925Z,49.1
2019-05-02T11:53:29.303Z,49.0
2019-05-02T11:54:16.858Z,49.7
2019-05-02T11:55:23.696Z,49.8
2019-05-02T11:56:16.997Z,49.3
2019-05-02T11:57:16.262Z,49.8
2019-05-02T11:58:16.551Z,48.9
2019-05-02T11:59:29.065Z,48.6
2019-05-02T12:00:16.446Z,48.7
2019-05-02T12:01:34.518Z,48.2
2019-05-02T12:02:19.102Z,48.2
2019-05-02T12:03:16.416Z,47.8
2019-05-02T12:04:17.149Z,48.0
2019-05-02T12:05:16.424Z,48.1
2019-05-02T12:06:19.923Z,48.0
2019-05-02T12:07:17.216Z,48.7
2019-05-02T12:08:16.493Z,48.5
2019-05-02T12:09:16.761Z,48.8
2019-05-02T12:10:17.040Z,49.2
2019-05-02T12:11:17.993Z,48.6
2019-05-02T12:12:16.257Z,48.5
2019-05-02T12:13:16.531Z,48.5
2019-05-02T12:14:16.797Z,48.4
2019-05-02T12:15:17.058Z,48.5
2019-05-02T12:16:16.333Z,48.5
2019-05-02T12:17:16.592Z,48.5
2019-05-02T12:18:16.859Z,49.2
2019-05-02T12:19:17.110Z,48.8
2019-05-02T12:20:16.389Z,49.7
2019-05-02T12:21:16.426Z,49.5
2019-05-02T12:22:17.157Z,49.4
2019-05-02T12:23:16.484Z,49.2
2019-05-02T12:24:16.810Z,49.5
2019-05-02T12:25:17.112Z,49.5
2019-05-02T12:26:16.376Z,49.7
2019-05-02T12:27:16.635Z,50.0
2019-05-02T12:28:16.896Z,50.2
2019-05-02T12:29:17.171Z,50.1
2019-05-02T12:30:16.462Z,50.5
2019-05-02T12:31:16.850Z,51.4
2019-05-02T12:32:17.130Z,51.4
2019-05-02T12:33:16.413Z,51.6
2019-05-02T12:34:16.688Z,51.7
2019-05-02T12:35:16.952Z,51.7
2019-05-02T12:36:17.234Z,51.9
2019-05-02T12:37:16.497Z,52.2
2019-05-02T12:38:16.757Z,51.6
2019-05-02T12:39:17.019Z,52.1
2019-05-02T12:40:16.305Z,52.5
2019-05-02T12:41:24.975Z,51.8
2019-05-02T12:42:17.156Z,51.5
2019-05-02T12:43:16.506Z,51.5
2019-05-02T12:44:16.775Z,50.8
2019-05-02T12:45:17.051Z,49.9
2019-05-02T12:46:16.313Z,50.3
2019-05-02T12:47:16.586Z,50.1
2019-05-02T12:48:16.853Z,50.3
2019-05-02T12:49:27.796Z,50.6
2019-05-02T12:50:17.261Z,50.8
2019-05-02T12:51:16.310Z,51.0
2019-05-02T12:52:16.573Z,51.0
2019-05-02T12:53:16.836Z,51.2
2019-05-02T12:54:17.096Z,51.5
2019-05-02T12:55:16.354Z,51.0
2019-05-02T12:56:16.627Z,51.2
2019-05-02T12:57:16.892Z,51.0
2019-05-02T12:58:17.173Z,51.0
2019-05-02T12:59:16.444Z,51.0
2019-05-02T13:00:18.656Z,51.4
2019-05-02T13:01:16.775Z,51.4
2019-05-02T13:02:17.045Z,50.5
2019-05-02T13:03:16.328Z,50.6
2019-05-02T13:04:16.597Z,49.8
2019-05-02T13:05:16.881Z,49.7
2019-05-02T13:06:17.168Z,49.5
2019-05-02T13:07:16.445Z,49.8
2019-05-02T13:08:16.722Z,49.5
2019-05-02T13:09:16.990Z,50.1
2019-05-02T13:10:17.269Z,49.4
2019-05-02T13:11:16.313Z,49.7
2019-05-02T13:12:16.574Z,48.5
2019-05-02T13:13:16.841Z,49.3
2019-05-02T13:14:19.948Z,46.4
2019-05-02T13:15:16.337Z,46.2
2019-05-02T13:16:16.620Z,47.0
2019-05-02T13:17:16.880Z,47.0
2019-05-02T13:18:25.445Z,47.7
2019-05-02T13:19:17.080Z,47.7
2019-05-02T13:20:16.356Z,48.8
2019-05-02T13:21:17.218Z,48.2
2019-05-02T13:22:16.481Z,49.0
2019-05-02T13:23:16.780Z,49.5
2019-05-02T13:24:17.050Z,49.8
2019-05-02T13:25:16.319Z,49.6
2019-05-02T13:26:26.413Z,49.5
2019-05-02T13:27:17.231Z,49.6